sensor_id;sensor_type;location;lat;lon;timestamp;P1;durP1;ratioP1;P2;durP2;ratioP2
18881;SDS011;9573;50.948;11.600;2023-04-09T00:01:38;52.23;;;22.60;;
18881;SDS011;9573;50.948;11.600;2023-04-09T00:04:07;52.83;;;22.67;;
18881;SDS011;9573;50.948;11.600;2023-04-09T00:06:34;53.20;;;22.97;;
18881;SDS011;9573;50.948;11.600;2023-04-09T00:09:01;53.77;;;23.53;;
18881;SDS011;9573;50.948;11.600;2023-04-09T00:11:28;53.47;;;23.90;;
18881;SDS011;9573;50.948;11.600;2023-04-09T00:13:56;53.20;;;24.43;;
18881;SDS011;9573;50.948;11.600;2023-04-09T00:16:23;54.33;;;23.73;;
18881;SDS011;9573;50.948;11.600;2023-04-09T00:18:50;54.93;;;23.70;;
18881;SDS011;9573;50.948;11.600;2023-04-09T00:21:18;51.37;;;23.73;;
18881;SDS011;9573;50.948;11.600;2023-04-09T00:23:45;51.40;;;21.93;;
18881;SDS011;9573;50.948;11.600;2023-04-09T00:26:12;50.40;;;22.40;;
18881;SDS011;9573;50.948;11.600;2023-04-09T00:28:40;49.40;;;22.13;;
18881;SDS011;9573;50.948;11.600;2023-04-09T00:31:07;49.73;;;22.10;;
18881;SDS011;9573;50.948;11.600;2023-04-09T00:33:34;50.97;;;22.53;;
18881;SDS011;9573;50.948;11.600;2023-04-09T00:36:01;50.17;;;22.40;;
18881;SDS011;9573;50.948;11.600;2023-04-09T00:38:30;50.70;;;21.53;;
18881;SDS011;9573;50.948;11.600;2023-04-09T00:40:57;48.60;;;22.17;;
18881;SDS011;9573;50.948;11.600;2023-04-09T00:43:25;49.67;;;21.33;;
18881;SDS011;9573;50.948;11.600;2023-04-09T00:45:52;47.23;;;20.60;;
18881;SDS011;9573;50.948;11.600;2023-04-09T00:48:19;46.57;;;20.77;;
18881;SDS011;9573;50.948;11.600;2023-04-09T00:50:47;52.43;;;23.30;;
18881;SDS011;9573;50.948;11.600;2023-04-09T00:53:14;51.63;;;22.90;;
18881;SDS011;9573;50.948;11.600;2023-04-09T00:55:43;48.73;;;21.37;;
18881;SDS011;9573;50.948;11.600;2023-04-09T00:58:11;51.27;;;23.00;;
18881;SDS011;9573;50.948;11.600;2023-04-09T01:00:38;53.20;;;22.87;;
18881;SDS011;9573;50.948;11.600;2023-04-09T01:03:06;47.97;;;21.83;;
18881;SDS011;9573;50.948;11.600;2023-04-09T01:05:35;51.90;;;22.80;;
18881;SDS011;9573;50.948;11.600;2023-04-09T01:08:12;50.03;;;22.60;;
18881;SDS011;9573;50.948;11.600;2023-04-09T01:11:03;55.93;;;22.77;;
18881;SDS011;9573;50.948;11.600;2023-04-09T01:13:38;55.37;;;24.37;;
18881;SDS011;9573;50.948;11.600;2023-04-09T01:16:13;59.53;;;25.40;;
18881;SDS011;9573;50.948;11.600;2023-04-09T01:18:45;59.37;;;25.70;;
18881;SDS011;9573;50.948;11.600;2023-04-09T01:21:19;57.97;;;25.03;;
18881;SDS011;9573;50.948;11.600;2023-04-09T01:23:54;57.93;;;25.63;;
18881;SDS011;9573;50.948;11.600;2023-04-09T01:26:33;59.50;;;25.57;;
18881;SDS011;9573;50.948;11.600;2023-04-09T01:29:20;56.50;;;23.80;;
18881;SDS011;9573;50.948;11.600;2023-04-09T01:31:49;56.40;;;25.30;;
18881;SDS011;9573;50.948;11.600;2023-04-09T01:34:18;56.40;;;24.83;;
18881;SDS011;9573;50.948;11.600;2023-04-09T01:36:49;53.90;;;23.23;;
18881;SDS011;9573;50.948;11.600;2023-04-09T01:39:21;54.13;;;23.67;;
18881;SDS011;9573;50.948;11.600;2023-04-09T01:41:49;53.30;;;22.93;;
18881;SDS011;9573;50.948;11.600;2023-04-09T01:44:17;51.63;;;23.03;;
18881;SDS011;9573;50.948;11.600;2023-04-09T01:46:47;54.47;;;22.43;;
18881;SDS011;9573;50.948;11.600;2023-04-09T01:49:15;55.23;;;23.40;;
18881;SDS011;9573;50.948;11.600;2023-04-09T01:51:43;54.23;;;25.07;;
18881;SDS011;9573;50.948;11.600;2023-04-09T01:54:11;53.30;;;23.23;;
18881;SDS011;9573;50.948;11.600;2023-04-09T01:56:38;53.97;;;23.77;;
18881;SDS011;9573;50.948;11.600;2023-04-09T01:59:07;51.13;;;23.23;;
18881;SDS011;9573;50.948;11.600;2023-04-09T02:01:36;54.03;;;22.70;;
18881;SDS011;9573;50.948;11.600;2023-04-09T02:04:12;52.47;;;22.83;;
18881;SDS011;9573;50.948;11.600;2023-04-09T02:06:51;52.20;;;22.57;;
18881;SDS011;9573;50.948;11.600;2023-04-09T02:09:23;54.00;;;22.70;;
18881;SDS011;9573;50.948;11.600;2023-04-09T02:11:55;54.07;;;23.70;;
18881;SDS011;9573;50.948;11.600;2023-04-09T02:14:25;53.27;;;23.00;;
18881;SDS011;9573;50.948;11.600;2023-04-09T02:16:55;51.03;;;22.70;;
18881;SDS011;9573;50.948;11.600;2023-04-09T02:19:22;50.23;;;21.93;;
18881;SDS011;9573;50.948;11.600;2023-04-09T02:21:50;50.83;;;23.03;;
18881;SDS011;9573;50.948;11.600;2023-04-09T02:24:17;54.03;;;23.60;;
18881;SDS011;9573;50.948;11.600;2023-04-09T02:26:44;52.50;;;23.53;;
18881;SDS011;9573;50.948;11.600;2023-04-09T02:29:11;52.10;;;22.23;;
18881;SDS011;9573;50.948;11.600;2023-04-09T02:31:38;54.00;;;22.53;;
18881;SDS011;9573;50.948;11.600;2023-04-09T02:34:06;56.47;;;23.50;;
18881;SDS011;9573;50.948;11.600;2023-04-09T02:36:33;52.73;;;23.40;;
18881;SDS011;9573;50.948;11.600;2023-04-09T02:39:00;53.90;;;23.20;;
18881;SDS011;9573;50.948;11.600;2023-04-09T02:41:28;53.43;;;23.10;;
18881;SDS011;9573;50.948;11.600;2023-04-09T02:43:55;50.97;;;22.20;;
18881;SDS011;9573;50.948;11.600;2023-04-09T02:46:22;56.20;;;22.83;;
18881;SDS011;9573;50.948;11.600;2023-04-09T02:48:49;53.30;;;22.27;;
18881;SDS011;9573;50.948;11.600;2023-04-09T02:51:17;54.80;;;22.73;;
18881;SDS011;9573;50.948;11.600;2023-04-09T02:53:45;53.50;;;23.00;;
18881;SDS011;9573;50.948;11.600;2023-04-09T02:56:12;54.27;;;23.37;;
18881;SDS011;9573;50.948;11.600;2023-04-09T02:58:39;53.93;;;21.87;;
18881;SDS011;9573;50.948;11.600;2023-04-09T03:01:06;53.30;;;22.23;;
18881;SDS011;9573;50.948;11.600;2023-04-09T03:03:33;58.10;;;24.47;;
18881;SDS011;9573;50.948;11.600;2023-04-09T03:06:01;57.03;;;24.57;;
18881;SDS011;9573;50.948;11.600;2023-04-09T03:08:30;53.87;;;23.27;;
18881;SDS011;9573;50.948;11.600;2023-04-09T03:10:57;53.33;;;21.87;;
18881;SDS011;9573;50.948;11.600;2023-04-09T03:13:26;54.73;;;22.73;;
18881;SDS011;9573;50.948;11.600;2023-04-09T03:15:53;55.03;;;22.83;;
18881;SDS011;9573;50.948;11.600;2023-04-09T03:18:20;61.13;;;23.60;;
18881;SDS011;9573;50.948;11.600;2023-04-09T03:20:47;57.27;;;23.97;;
18881;SDS011;9573;50.948;11.600;2023-04-09T03:23:15;58.23;;;23.57;;
18881;SDS011;9573;50.948;11.600;2023-04-09T03:25:43;55.17;;;22.30;;
18881;SDS011;9573;50.948;11.600;2023-04-09T03:28:10;53.40;;;21.80;;
18881;SDS011;9573;50.948;11.600;2023-04-09T03:30:37;60.23;;;24.70;;
18881;SDS011;9573;50.948;11.600;2023-04-09T03:33:04;56.33;;;23.17;;
18881;SDS011;9573;50.948;11.600;2023-04-09T03:35:31;58.80;;;23.13;;
18881;SDS011;9573;50.948;11.600;2023-04-09T03:37:58;51.80;;;21.70;;
18881;SDS011;9573;50.948;11.600;2023-04-09T03:40:25;59.63;;;23.53;;
18881;SDS011;9573;50.948;11.600;2023-04-09T03:42:54;59.07;;;24.13;;
18881;SDS011;9573;50.948;11.600;2023-04-09T03:45:21;58.53;;;22.43;;
18881;SDS011;9573;50.948;11.600;2023-04-09T03:47:48;57.17;;;22.70;;
18881;SDS011;9573;50.948;11.600;2023-04-09T03:50:15;59.13;;;23.40;;
18881;SDS011;9573;50.948;11.600;2023-04-09T03:52:44;57.83;;;22.47;;
18881;SDS011;9573;50.948;11.600;2023-04-09T03:55:11;55.90;;;21.87;;
18881;SDS011;9573;50.948;11.600;2023-04-09T03:57:38;56.07;;;21.93;;
18881;SDS011;9573;50.948;11.600;2023-04-09T04:00:07;57.70;;;22.23;;
18881;SDS011;9573;50.948;11.600;2023-04-09T04:02:34;58.73;;;22.67;;
18881;SDS011;9573;50.948;11.600;2023-04-09T04:05:01;57.50;;;22.43;;
18881;SDS011;9573;50.948;11.600;2023-04-09T04:07:29;58.23;;;22.87;;
18881;SDS011;9573;50.948;11.600;2023-04-09T04:09:57;59.83;;;23.80;;
18881;SDS011;9573;50.948;11.600;2023-04-09T04:12:24;58.40;;;22.63;;
18881;SDS011;9573;50.948;11.600;2023-04-09T04:14:51;55.27;;;22.23;;
18881;SDS011;9573;50.948;11.600;2023-04-09T04:17:20;58.20;;;23.23;;
18881;SDS011;9573;50.948;11.600;2023-04-09T04:19:47;60.67;;;22.90;;
18881;SDS011;9573;50.948;11.600;2023-04-09T04:22:14;58.83;;;22.37;;
18881;SDS011;9573;50.948;11.600;2023-04-09T04:24:41;58.80;;;22.37;;
18881;SDS011;9573;50.948;11.600;2023-04-09T04:27:08;57.07;;;22.73;;
18881;SDS011;9573;50.948;11.600;2023-04-09T04:29:35;58.53;;;22.00;;
18881;SDS011;9573;50.948;11.600;2023-04-09T04:32:02;63.63;;;22.73;;
18881;SDS011;9573;50.948;11.600;2023-04-09T04:34:31;59.30;;;21.43;;
18881;SDS011;9573;50.948;11.600;2023-04-09T04:36:58;58.13;;;22.47;;
18881;SDS011;9573;50.948;11.600;2023-04-09T04:39:25;60.67;;;23.80;;
18881;SDS011;9573;50.948;11.600;2023-04-09T04:41:52;61.07;;;23.17;;
18881;SDS011;9573;50.948;11.600;2023-04-09T04:44:19;60.67;;;22.60;;
18881;SDS011;9573;50.948;11.600;2023-04-09T04:46:46;60.03;;;22.63;;
18881;SDS011;9573;50.948;11.600;2023-04-09T04:49:14;60.93;;;23.87;;
18881;SDS011;9573;50.948;11.600;2023-04-09T04:51:42;61.83;;;23.87;;
18881;SDS011;9573;50.948;11.600;2023-04-09T04:54:09;58.87;;;23.47;;
18881;SDS011;9573;50.948;11.600;2023-04-09T04:56:36;62.33;;;24.20;;
18881;SDS011;9573;50.948;11.600;2023-04-09T04:59:03;58.27;;;22.10;;
18881;SDS011;9573;50.948;11.600;2023-04-09T05:01:30;57.13;;;22.53;;
18881;SDS011;9573;50.948;11.600;2023-04-09T05:03:57;60.73;;;23.37;;
18881;SDS011;9573;50.948;11.600;2023-04-09T05:06:27;59.00;;;23.03;;
18881;SDS011;9573;50.948;11.600;2023-04-09T05:08:55;62.07;;;25.20;;
18881;SDS011;9573;50.948;11.600;2023-04-09T05:11:22;80.43;;;34.13;;
18881;SDS011;9573;50.948;11.600;2023-04-09T05:13:50;75.23;;;32.70;;
18881;SDS011;9573;50.948;11.600;2023-04-09T05:16:17;66.10;;;27.03;;
18881;SDS011;9573;50.948;11.600;2023-04-09T05:18:45;62.57;;;28.00;;
18881;SDS011;9573;50.948;11.600;2023-04-09T05:21:12;64.60;;;26.80;;
18881;SDS011;9573;50.948;11.600;2023-04-09T05:23:39;61.40;;;25.97;;
18881;SDS011;9573;50.948;11.600;2023-04-09T05:26:08;61.17;;;24.87;;
18881;SDS011;9573;50.948;11.600;2023-04-09T05:28:35;60.93;;;24.83;;
18881;SDS011;9573;50.948;11.600;2023-04-09T05:31:02;60.47;;;26.23;;
18881;SDS011;9573;50.948;11.600;2023-04-09T05:33:31;62.13;;;25.70;;
18881;SDS011;9573;50.948;11.600;2023-04-09T05:36:02;56.27;;;22.87;;
18881;SDS011;9573;50.948;11.600;2023-04-09T05:38:29;57.00;;;23.43;;
18881;SDS011;9573;50.948;11.600;2023-04-09T05:40:57;56.53;;;23.93;;
18881;SDS011;9573;50.948;11.600;2023-04-09T05:43:25;58.10;;;23.43;;
18881;SDS011;9573;50.948;11.600;2023-04-09T05:45:52;58.30;;;23.50;;
18881;SDS011;9573;50.948;11.600;2023-04-09T05:48:20;58.30;;;21.90;;
18881;SDS011;9573;50.948;11.600;2023-04-09T05:50:49;55.60;;;23.33;;
18881;SDS011;9573;50.948;11.600;2023-04-09T05:53:17;57.50;;;23.17;;
18881;SDS011;9573;50.948;11.600;2023-04-09T05:55:44;58.13;;;23.33;;
18881;SDS011;9573;50.948;11.600;2023-04-09T05:58:13;54.43;;;22.47;;
18881;SDS011;9573;50.948;11.600;2023-04-09T06:00:42;57.10;;;23.33;;
18881;SDS011;9573;50.948;11.600;2023-04-09T06:03:09;55.03;;;23.83;;
18881;SDS011;9573;50.948;11.600;2023-04-09T06:05:36;57.67;;;23.67;;
18881;SDS011;9573;50.948;11.600;2023-04-09T06:08:03;56.27;;;23.23;;
18881;SDS011;9573;50.948;11.600;2023-04-09T06:10:31;54.27;;;22.93;;
18881;SDS011;9573;50.948;11.600;2023-04-09T06:12:58;57.63;;;24.27;;
18881;SDS011;9573;50.948;11.600;2023-04-09T06:15:26;54.93;;;23.13;;
18881;SDS011;9573;50.948;11.600;2023-04-09T06:17:54;53.53;;;22.33;;
18881;SDS011;9573;50.948;11.600;2023-04-09T06:20:21;54.67;;;22.83;;
18881;SDS011;9573;50.948;11.600;2023-04-09T06:22:48;53.80;;;23.33;;
18881;SDS011;9573;50.948;11.600;2023-04-09T06:25:15;56.30;;;23.23;;
18881;SDS011;9573;50.948;11.600;2023-04-09T06:27:42;52.40;;;22.00;;
18881;SDS011;9573;50.948;11.600;2023-04-09T06:30:10;56.93;;;22.97;;
18881;SDS011;9573;50.948;11.600;2023-04-09T06:32:38;54.47;;;23.00;;
18881;SDS011;9573;50.948;11.600;2023-04-09T06:35:07;59.87;;;24.73;;
18881;SDS011;9573;50.948;11.600;2023-04-09T06:37:34;58.17;;;24.40;;
18881;SDS011;9573;50.948;11.600;2023-04-09T06:40:01;57.80;;;24.87;;
18881;SDS011;9573;50.948;11.600;2023-04-09T06:42:29;68.70;;;27.37;;
18881;SDS011;9573;50.948;11.600;2023-04-09T06:44:56;60.90;;;25.97;;
18881;SDS011;9573;50.948;11.600;2023-04-09T06:47:23;59.67;;;24.73;;
18881;SDS011;9573;50.948;11.600;2023-04-09T06:49:51;59.63;;;25.23;;
18881;SDS011;9573;50.948;11.600;2023-04-09T06:52:19;61.67;;;25.13;;
18881;SDS011;9573;50.948;11.600;2023-04-09T06:54:46;61.40;;;26.47;;
18881;SDS011;9573;50.948;11.600;2023-04-09T06:57:13;58.07;;;25.83;;
18881;SDS011;9573;50.948;11.600;2023-04-09T06:59:40;56.43;;;24.90;;
18881;SDS011;9573;50.948;11.600;2023-04-09T07:02:07;57.60;;;24.43;;
18881;SDS011;9573;50.948;11.600;2023-04-09T07:04:34;56.50;;;25.70;;
18881;SDS011;9573;50.948;11.600;2023-04-09T07:07:01;55.90;;;23.97;;
18881;SDS011;9573;50.948;11.600;2023-04-09T07:09:30;57.30;;;25.27;;
18881;SDS011;9573;50.948;11.600;2023-04-09T07:11:57;55.93;;;25.47;;
18881;SDS011;9573;50.948;11.600;2023-04-09T07:14:25;57.80;;;25.53;;
18881;SDS011;9573;50.948;11.600;2023-04-09T07:16:52;54.87;;;23.40;;
18881;SDS011;9573;50.948;11.600;2023-04-09T07:19:19;55.50;;;25.07;;
18881;SDS011;9573;50.948;11.600;2023-04-09T07:21:46;57.00;;;25.87;;
18881;SDS011;9573;50.948;11.600;2023-04-09T07:24:13;55.00;;;23.73;;
18881;SDS011;9573;50.948;11.600;2023-04-09T07:26:41;53.70;;;24.60;;
18881;SDS011;9573;50.948;11.600;2023-04-09T07:29:09;53.77;;;23.80;;
18881;SDS011;9573;50.948;11.600;2023-04-09T07:31:36;58.77;;;25.93;;
18881;SDS011;9573;50.948;11.600;2023-04-09T07:34:03;52.93;;;24.97;;
18881;SDS011;9573;50.948;11.600;2023-04-09T07:36:30;54.50;;;22.97;;
18881;SDS011;9573;50.948;11.600;2023-04-09T07:38:57;56.00;;;25.37;;
18881;SDS011;9573;50.948;11.600;2023-04-09T07:41:24;55.17;;;26.60;;
18881;SDS011;9573;50.948;11.600;2023-04-09T07:43:53;54.50;;;25.87;;
18881;SDS011;9573;50.948;11.600;2023-04-09T07:46:20;49.20;;;23.40;;
18881;SDS011;9573;50.948;11.600;2023-04-09T07:48:47;50.50;;;22.33;;
18881;SDS011;9573;50.948;11.600;2023-04-09T07:51:15;50.60;;;25.47;;
18881;SDS011;9573;50.948;11.600;2023-04-09T07:53:42;47.37;;;23.63;;
18881;SDS011;9573;50.948;11.600;2023-04-09T07:56:09;47.30;;;24.10;;
18881;SDS011;9573;50.948;11.600;2023-04-09T07:58:36;48.70;;;25.00;;
18881;SDS011;9573;50.948;11.600;2023-04-09T08:01:04;47.67;;;24.77;;
18881;SDS011;9573;50.948;11.600;2023-04-09T08:03:31;47.93;;;25.63;;
18881;SDS011;9573;50.948;11.600;2023-04-09T08:06:00;45.20;;;24.60;;
18881;SDS011;9573;50.948;11.600;2023-04-09T08:08:27;44.23;;;24.83;;
18881;SDS011;9573;50.948;11.600;2023-04-09T08:10:54;42.33;;;24.53;;
18881;SDS011;9573;50.948;11.600;2023-04-09T08:13:22;44.27;;;24.67;;
18881;SDS011;9573;50.948;11.600;2023-04-09T08:15:49;45.43;;;24.87;;
18881;SDS011;9573;50.948;11.600;2023-04-09T08:18:17;41.70;;;23.53;;
18881;SDS011;9573;50.948;11.600;2023-04-09T08:20:45;43.33;;;25.07;;
18881;SDS011;9573;50.948;11.600;2023-04-09T08:23:12;43.90;;;25.67;;
18881;SDS011;9573;50.948;11.600;2023-04-09T08:25:39;42.77;;;25.33;;
18881;SDS011;9573;50.948;11.600;2023-04-09T08:28:06;41.70;;;25.43;;
18881;SDS011;9573;50.948;11.600;2023-04-09T08:30:33;41.90;;;24.97;;
18881;SDS011;9573;50.948;11.600;2023-04-09T08:33:00;41.63;;;25.43;;
18881;SDS011;9573;50.948;11.600;2023-04-09T08:35:29;41.23;;;25.37;;
18881;SDS011;9573;50.948;11.600;2023-04-09T08:37:57;41.60;;;24.23;;
18881;SDS011;9573;50.948;11.600;2023-04-09T08:40:24;41.30;;;24.50;;
18881;SDS011;9573;50.948;11.600;2023-04-09T08:42:52;39.10;;;23.27;;
18881;SDS011;9573;50.948;11.600;2023-04-09T08:45:21;39.30;;;23.33;;
18881;SDS011;9573;50.948;11.600;2023-04-09T08:47:49;39.90;;;24.63;;
18881;SDS011;9573;50.948;11.600;2023-04-09T08:50:17;40.83;;;24.00;;
18881;SDS011;9573;50.948;11.600;2023-04-09T08:52:47;39.93;;;23.93;;
18881;SDS011;9573;50.948;11.600;2023-04-09T08:55:15;41.03;;;24.25;;
18881;SDS011;9573;50.948;11.600;2023-04-09T08:57:42;38.92;;;22.52;;
18881;SDS011;9573;50.948;11.600;2023-04-09T09:00:09;37.15;;;21.67;;
18881;SDS011;9573;50.948;11.600;2023-04-09T09:02:38;38.15;;;21.88;;
18881;SDS011;9573;50.948;11.600;2023-04-09T09:05:36;35.85;;;20.83;;
18881;SDS011;9573;50.948;11.600;2023-04-09T09:08:07;37.75;;;21.48;;
18881;SDS011;9573;50.948;11.600;2023-04-09T09:10:38;37.17;;;20.95;;
18881;SDS011;9573;50.948;11.600;2023-04-09T09:13:16;35.10;;;19.83;;
18881;SDS011;9573;50.948;11.600;2023-04-09T09:15:45;37.67;;;21.70;;
18881;SDS011;9573;50.948;11.600;2023-04-09T09:18:15;35.63;;;20.42;;
18881;SDS011;9573;50.948;11.600;2023-04-09T09:20:43;38.63;;;22.83;;
18881;SDS011;9573;50.948;11.600;2023-04-09T09:23:11;40.22;;;22.77;;
18881;SDS011;9573;50.948;11.600;2023-04-09T09:25:39;38.45;;;23.17;;
18881;SDS011;9573;50.948;11.600;2023-04-09T09:28:07;37.95;;;22.52;;
18881;SDS011;9573;50.948;11.600;2023-04-09T09:30:37;36.33;;;21.88;;
18881;SDS011;9573;50.948;11.600;2023-04-09T09:33:06;35.97;;;21.25;;
18881;SDS011;9573;50.948;11.600;2023-04-09T09:35:47;37.20;;;21.48;;
18881;SDS011;9573;50.948;11.600;2023-04-09T09:38:16;35.50;;;21.40;;
18881;SDS011;9573;50.948;11.600;2023-04-09T09:40:43;37.08;;;21.52;;
18881;SDS011;9573;50.948;11.600;2023-04-09T09:43:11;35.80;;;20.50;;
18881;SDS011;9573;50.948;11.600;2023-04-09T09:45:39;34.63;;;19.75;;
18881;SDS011;9573;50.948;11.600;2023-04-09T09:48:08;35.15;;;20.10;;
18881;SDS011;9573;50.948;11.600;2023-04-09T09:50:37;33.78;;;18.98;;
18881;SDS011;9573;50.948;11.600;2023-04-09T09:53:06;36.45;;;20.80;;
18881;SDS011;9573;50.948;11.600;2023-04-09T09:55:37;32.97;;;19.30;;
18881;SDS011;9573;50.948;11.600;2023-04-09T09:58:07;36.08;;;20.90;;
18881;SDS011;9573;50.948;11.600;2023-04-09T10:00:44;36.80;;;20.52;;
18881;SDS011;9573;50.948;11.600;2023-04-09T10:03:19;35.78;;;20.95;;
18881;SDS011;9573;50.948;11.600;2023-04-09T10:05:50;35.67;;;20.00;;
18881;SDS011;9573;50.948;11.600;2023-04-09T10:08:18;34.65;;;19.42;;
18881;SDS011;9573;50.948;11.600;2023-04-09T10:10:48;34.63;;;19.23;;
18881;SDS011;9573;50.948;11.600;2023-04-09T10:13:18;34.45;;;19.45;;
18881;SDS011;9573;50.948;11.600;2023-04-09T10:15:51;34.75;;;19.90;;
18881;SDS011;9573;50.948;11.600;2023-04-09T10:18:18;34.60;;;18.77;;
18881;SDS011;9573;50.948;11.600;2023-04-09T10:20:47;33.90;;;19.67;;
18881;SDS011;9573;50.948;11.600;2023-04-09T10:23:21;35.33;;;20.05;;
18881;SDS011;9573;50.948;11.600;2023-04-09T10:25:59;35.05;;;19.65;;
18881;SDS011;9573;50.948;11.600;2023-04-09T10:28:27;34.22;;;19.58;;
18881;SDS011;9573;50.948;11.600;2023-04-09T10:30:54;33.10;;;18.88;;
18881;SDS011;9573;50.948;11.600;2023-04-09T10:33:21;33.35;;;18.25;;
18881;SDS011;9573;50.948;11.600;2023-04-09T10:35:52;35.03;;;19.27;;
18881;SDS011;9573;50.948;11.600;2023-04-09T10:38:32;32.78;;;18.60;;
18881;SDS011;9573;50.948;11.600;2023-04-09T10:41:15;33.38;;;18.35;;
18881;SDS011;9573;50.948;11.600;2023-04-09T10:43:48;32.72;;;18.45;;
18881;SDS011;9573;50.948;11.600;2023-04-09T10:49:08;31.90;;;18.15;;
18881;SDS011;9573;50.948;11.600;2023-04-09T10:51:42;31.45;;;17.90;;
18881;SDS011;9573;50.948;11.600;2023-04-09T10:54:35;32.10;;;18.60;;
18881;SDS011;9573;50.948;11.600;2023-04-09T10:57:15;31.63;;;17.63;;
18881;SDS011;9573;50.948;11.600;2023-04-09T10:59:46;31.00;;;17.38;;
18881;SDS011;9573;50.948;11.600;2023-04-09T11:02:34;32.63;;;17.95;;
18881;SDS011;9573;50.948;11.600;2023-04-09T11:05:27;32.65;;;18.02;;
18881;SDS011;9573;50.948;11.600;2023-04-09T11:08:02;31.55;;;17.10;;
18881;SDS011;9573;50.948;11.600;2023-04-09T11:10:33;31.92;;;17.10;;
18881;SDS011;9573;50.948;11.600;2023-04-09T11:13:02;33.55;;;17.27;;
18881;SDS011;9573;50.948;11.600;2023-04-09T11:15:30;31.35;;;17.13;;
18881;SDS011;9573;50.948;11.600;2023-04-09T11:17:59;30.52;;;16.00;;
18881;SDS011;9573;50.948;11.600;2023-04-09T11:20:26;27.70;;;14.48;;
18881;SDS011;9573;50.948;11.600;2023-04-09T11:22:55;27.88;;;15.30;;
18881;SDS011;9573;50.948;11.600;2023-04-09T11:25:23;28.80;;;15.27;;
18881;SDS011;9573;50.948;11.600;2023-04-09T11:27:52;28.33;;;15.10;;
18881;SDS011;9573;50.948;11.600;2023-04-09T11:30:21;27.17;;;14.20;;
18881;SDS011;9573;50.948;11.600;2023-04-09T11:32:48;27.45;;;15.18;;
18881;SDS011;9573;50.948;11.600;2023-04-09T11:35:17;27.80;;;14.93;;
18881;SDS011;9573;50.948;11.600;2023-04-09T11:37:46;28.90;;;15.75;;
18881;SDS011;9573;50.948;11.600;2023-04-09T11:40:16;25.48;;;12.43;;
18881;SDS011;9573;50.948;11.600;2023-04-09T11:42:45;29.90;;;15.30;;
18881;SDS011;9573;50.948;11.600;2023-04-09T11:45:15;29.48;;;15.95;;
18881;SDS011;9573;50.948;11.600;2023-04-09T11:47:44;28.80;;;15.57;;
18881;SDS011;9573;50.948;11.600;2023-04-09T11:50:12;30.60;;;15.75;;
18881;SDS011;9573;50.948;11.600;2023-04-09T11:52:40;29.83;;;16.17;;
18881;SDS011;9573;50.948;11.600;2023-04-09T11:55:08;29.73;;;15.68;;
18881;SDS011;9573;50.948;11.600;2023-04-09T11:57:39;28.63;;;15.63;;
18881;SDS011;9573;50.948;11.600;2023-04-09T12:00:09;29.33;;;15.85;;
18881;SDS011;9573;50.948;11.600;2023-04-09T12:02:39;31.53;;;16.20;;
18881;SDS011;9573;50.948;11.600;2023-04-09T12:05:20;30.13;;;16.03;;
18881;SDS011;9573;50.948;11.600;2023-04-09T12:07:48;29.87;;;14.27;;
18881;SDS011;9573;50.948;11.600;2023-04-09T12:10:17;30.73;;;15.70;;
18881;SDS011;9573;50.948;11.600;2023-04-09T12:12:44;29.77;;;15.60;;
18881;SDS011;9573;50.948;11.600;2023-04-09T12:15:22;30.73;;;16.37;;
18881;SDS011;9573;50.948;11.600;2023-04-09T12:17:52;29.13;;;14.93;;
18881;SDS011;9573;50.948;11.600;2023-04-09T12:20:31;31.00;;;15.70;;
18881;SDS011;9573;50.948;11.600;2023-04-09T12:23:01;30.53;;;15.60;;
18881;SDS011;9573;50.948;11.600;2023-04-09T12:25:30;28.43;;;14.53;;
18881;SDS011;9573;50.948;11.600;2023-04-09T12:28:00;29.30;;;14.17;;
18881;SDS011;9573;50.948;11.600;2023-04-09T12:30:28;31.00;;;15.33;;
18881;SDS011;9573;50.948;11.600;2023-04-09T12:32:57;30.03;;;15.93;;
18881;SDS011;9573;50.948;11.600;2023-04-09T12:35:25;30.67;;;15.40;;
18881;SDS011;9573;50.948;11.600;2023-04-09T12:37:52;28.80;;;14.50;;
18881;SDS011;9573;50.948;11.600;2023-04-09T12:40:19;28.87;;;13.90;;
18881;SDS011;9573;50.948;11.600;2023-04-09T12:42:46;28.87;;;14.47;;
18881;SDS011;9573;50.948;11.600;2023-04-09T12:45:14;28.67;;;13.73;;
18881;SDS011;9573;50.948;11.600;2023-04-09T12:47:46;28.53;;;13.43;;
18881;SDS011;9573;50.948;11.600;2023-04-09T12:50:14;27.90;;;12.60;;
18881;SDS011;9573;50.948;11.600;2023-04-09T12:52:41;27.73;;;13.20;;
18881;SDS011;9573;50.948;11.600;2023-04-09T12:55:10;24.57;;;12.20;;
18881;SDS011;9573;50.948;11.600;2023-04-09T12:57:38;25.70;;;12.23;;
18881;SDS011;9573;50.948;11.600;2023-04-09T13:00:09;24.27;;;11.20;;
18881;SDS011;9573;50.948;11.600;2023-04-09T13:02:37;24.77;;;10.73;;
18881;SDS011;9573;50.948;11.600;2023-04-09T13:05:08;25.07;;;11.60;;
18881;SDS011;9573;50.948;11.600;2023-04-09T13:07:37;25.83;;;10.93;;
18881;SDS011;9573;50.948;11.600;2023-04-09T13:10:04;24.53;;;10.73;;
18881;SDS011;9573;50.948;11.600;2023-04-09T13:12:32;24.50;;;10.97;;
18881;SDS011;9573;50.948;11.600;2023-04-09T13:15:00;25.70;;;11.53;;
18881;SDS011;9573;50.948;11.600;2023-04-09T13:17:27;22.53;;;10.03;;
18881;SDS011;9573;50.948;11.600;2023-04-09T13:19:54;19.03;;;8.60;;
18881;SDS011;9573;50.948;11.600;2023-04-09T13:22:21;23.77;;;10.13;;
18881;SDS011;9573;50.948;11.600;2023-04-09T13:24:50;21.33;;;9.07;;
18881;SDS011;9573;50.948;11.600;2023-04-09T13:27:17;20.17;;;8.60;;
18881;SDS011;9573;50.948;11.600;2023-04-09T13:29:44;21.33;;;8.70;;
18881;SDS011;9573;50.948;11.600;2023-04-09T13:32:11;18.77;;;8.33;;
18881;SDS011;9573;50.948;11.600;2023-04-09T13:34:38;20.27;;;8.13;;
18881;SDS011;9573;50.948;11.600;2023-04-09T13:37:05;21.17;;;8.83;;
18881;SDS011;9573;50.948;11.600;2023-04-09T13:39:33;18.63;;;8.20;;
18881;SDS011;9573;50.948;11.600;2023-04-09T13:42:01;19.73;;;8.47;;
18881;SDS011;9573;50.948;11.600;2023-04-09T13:44:28;20.77;;;8.43;;
18881;SDS011;9573;50.948;11.600;2023-04-09T13:46:57;20.53;;;8.27;;
18881;SDS011;9573;50.948;11.600;2023-04-09T13:49:24;20.87;;;8.83;;
18881;SDS011;9573;50.948;11.600;2023-04-09T13:51:52;19.40;;;7.97;;
18881;SDS011;9573;50.948;11.600;2023-04-09T13:54:19;18.63;;;7.63;;
18881;SDS011;9573;50.948;11.600;2023-04-09T13:56:48;22.03;;;9.27;;
18881;SDS011;9573;50.948;11.600;2023-04-09T13:59:17;22.53;;;8.63;;
18881;SDS011;9573;50.948;11.600;2023-04-09T14:01:44;21.17;;;8.27;;
18881;SDS011;9573;50.948;11.600;2023-04-09T14:04:11;23.70;;;9.53;;
18881;SDS011;9573;50.948;11.600;2023-04-09T14:06:38;25.37;;;10.53;;
18881;SDS011;9573;50.948;11.600;2023-04-09T14:09:06;24.17;;;10.20;;
18881;SDS011;9573;50.948;11.600;2023-04-09T14:11:33;26.33;;;10.93;;
18881;SDS011;9573;50.948;11.600;2023-04-09T14:14:00;27.93;;;10.87;;
18881;SDS011;9573;50.948;11.600;2023-04-09T14:16:28;24.33;;;10.20;;
18881;SDS011;9573;50.948;11.600;2023-04-09T14:18:56;24.57;;;10.53;;
18881;SDS011;9573;50.948;11.600;2023-04-09T14:21:23;24.17;;;10.50;;
18881;SDS011;9573;50.948;11.600;2023-04-09T14:23:51;24.73;;;10.57;;
18881;SDS011;9573;50.948;11.600;2023-04-09T14:26:18;23.67;;;9.03;;
18881;SDS011;9573;50.948;11.600;2023-04-09T14:28:46;23.70;;;9.37;;
18881;SDS011;9573;50.948;11.600;2023-04-09T14:31:13;24.90;;;9.70;;
18881;SDS011;9573;50.948;11.600;2023-04-09T14:33:45;25.00;;;9.80;;
18881;SDS011;9573;50.948;11.600;2023-04-09T14:36:12;25.77;;;10.70;;